createdAt,value
2019-02-21T00:01:30.746Z,6.17
2019-02-21T00:04:01.264Z,6.19
2019-02-21T00:06:32.695Z,6.16
2019-02-21T00:09:03.606Z,6.15
2019-02-21T00:11:34.501Z,6.13
2019-02-21T00:14:05.066Z,6.10
2019-02-21T00:16:35.515Z,6.08
2019-02-21T00:19:06.016Z,6.08
2019-02-21T00:21:36.563Z,6.09
2019-02-21T00:24:07.014Z,6.10
2019-02-21T00:26:37.517Z,6.16
2019-02-21T00:29:07.966Z,6.18
2019-02-21T00:31:40.104Z,6.19
2019-02-21T00:34:11.113Z,6.19
2019-02-21T00:36:41.559Z,6.20
2019-02-21T00:39:12.393Z,6.21
2019-02-21T00:41:42.887Z,6.21
2019-02-21T00:44:13.379Z,6.23
2019-02-21T00:46:44.290Z,6.27
2019-02-21T00:49:14.782Z,6.31
2019-02-21T00:51:45.234Z,6.37
2019-02-21T00:54:15.678Z,6.39
2019-02-21T00:56:46.172Z,6.38
2019-02-21T00:59:17.085Z,6.41
2019-02-21T01:01:48.618Z,6.43
2019-02-21T01:04:19.867Z,6.46
2019-02-21T01:06:50.307Z,6.46
2019-02-21T01:09:20.757Z,6.44
2019-02-21T01:11:51.342Z,6.41
2019-02-21T01:14:21.792Z,6.43
2019-02-21T01:16:52.655Z,6.45
2019-02-21T01:19:23.708Z,6.39
2019-02-21T01:21:54.157Z,6.43
2019-02-21T01:24:24.595Z,6.53
2019-02-21T01:26:55.089Z,6.48
2019-02-21T01:29:25.605Z,6.50
2019-02-21T01:31:56.422Z,6.46
2019-02-21T01:34:26.913Z,6.43
2019-02-21T01:36:57.356Z,6.43
2019-02-21T01:39:27.796Z,6.52
2019-02-21T01:41:58.282Z,6.46
2019-02-21T01:44:28.735Z,6.47
2019-02-21T01:46:59.339Z,6.49
2019-02-21T01:49:29.824Z,6.45
2019-02-21T01:52:00.270Z,6.42
2019-02-21T01:54:30.719Z,6.47
2019-02-21T01:57:01.217Z,6.41
2019-02-21T01:59:31.665Z,6.45
2019-02-21T02:02:02.113Z,6.44
2019-02-21T02:04:32.604Z,6.49
2019-02-21T02:07:03.077Z,6.64
2019-02-21T02:09:33.520Z,6.84
2019-02-21T02:12:04.867Z,6.79
2019-02-21T02:14:35.319Z,6.72
2019-02-21T02:17:05.793Z,6.69
2019-02-21T02:19:36.231Z,6.76
2019-02-21T02:22:06.971Z,6.70
2019-02-21T02:24:37.421Z,6.63
2019-02-21T02:27:07.899Z,6.60
2019-02-21T02:29:38.352Z,6.62
2019-02-21T02:32:09.778Z,6.65
2019-02-21T02:34:40.456Z,6.60
2019-02-21T02:37:11.980Z,6.52
2019-02-21T02:39:42.777Z,6.52
2019-02-21T02:42:14.152Z,6.52
2019-02-21T02:44:44.591Z,6.55
2019-02-21T02:47:15.034Z,6.66
2019-02-21T02:49:45.534Z,6.68
2019-02-21T02:52:15.978Z,6.62
2019-02-21T02:54:46.423Z,6.55
2019-02-21T02:57:16.914Z,6.56
2019-02-21T02:59:47.365Z,6.61
2019-02-21T03:02:17.794Z,6.59
2019-02-21T03:04:48.817Z,6.58
2019-02-21T03:07:19.349Z,6.58
2019-02-21T03:09:49.949Z,6.60
2019-02-21T03:12:20.435Z,6.61
2019-02-21T03:14:50.874Z,6.64
2019-02-21T03:17:21.318Z,6.68
2019-02-21T03:19:52.514Z,6.70
2019-02-21T03:22:22.968Z,6.70
2019-02-21T03:24:53.787Z,6.71
2019-02-21T03:27:24.586Z,6.72
2019-02-21T03:29:55.027Z,6.70
2019-02-21T03:32:26.167Z,6.66
2019-02-21T03:34:56.673Z,6.61
2019-02-21T03:37:27.485Z,6.62
2019-02-21T03:39:57.909Z,6.63
2019-02-21T03:42:28.400Z,6.70
2019-02-21T03:44:59.114Z,6.74
2019-02-21T03:47:29.571Z,6.73
2019-02-21T03:50:00.217Z,6.70
2019-02-21T03:52:31.303Z,6.76
2019-02-21T03:55:02.223Z,6.88
2019-02-21T03:57:32.712Z,6.92
2019-02-21T04:00:03.152Z,6.92
2019-02-21T04:02:33.606Z,6.87
2019-02-21T04:05:04.720Z,6.90
2019-02-21T04:07:35.187Z,6.93
2019-02-21T04:10:05.905Z,6.91
2019-02-21T04:12:36.748Z,6.86
2019-02-21T04:15:07.883Z,6.85
2019-02-21T04:17:38.333Z,6.79
2019-02-21T04:20:08.836Z,6.87
2019-02-21T04:22:39.280Z,6.93
2019-02-21T04:25:09.827Z,6.97
2019-02-21T04:27:40.314Z,7.00
2019-02-21T04:30:10.767Z,7.05
2019-02-21T04:32:41.668Z,7.01
2019-02-21T04:35:12.521Z,7.02
2019-02-21T04:37:42.967Z,7.03
2019-02-21T04:40:14.156Z,6.99
2019-02-21T04:42:44.642Z,6.95
2019-02-21T04:45:15.084Z,7.00
2019-02-21T04:47:45.529Z,6.94
2019-02-21T04:50:16.020Z,6.92
2019-02-21T04:52:46.468Z,6.83
2019-02-21T04:55:16.907Z,6.85
2019-02-21T04:57:47.376Z,6.76
2019-02-21T05:00:17.819Z,6.87
2019-02-21T05:02:48.307Z,6.92
2019-02-21T05:05:18.761Z,6.88
2019-02-21T05:07:49.236Z,7.01
2019-02-21T05:10:19.797Z,6.95
2019-02-21T05:12:50.243Z,7.00
2019-02-21T05:15:20.860Z,6.91
2019-02-21T05:17:51.326Z,7.02
2019-02-21T05:20:21.767Z,7.03
2019-02-21T05:22:52.266Z,7.11
2019-02-21T05:25:22.707Z,7.07
2019-02-21T05:28:15.318Z,7.08
2019-02-21T05:30:46.987Z,7.07
2019-02-21T05:33:35.731Z,7.06
2019-02-21T05:36:25.153Z,6.98
2019-02-21T05:39:01.674Z,7.03
2019-02-21T05:41:39.751Z,6.93
2019-02-21T05:44:33.624Z,6.91
2019-02-21T05:47:15.911Z,6.92
2019-02-21T05:50:08.195Z,6.89
2019-02-21T05:52:53.966Z,6.90
2019-02-21T05:55:43.339Z,6.89
2019-02-21T05:58:35.532Z,6.87
2019-02-21T06:01:20.633Z,6.95
2019-02-21T06:04:13.292Z,6.84
2019-02-21T06:07:05.563Z,6.86
2019-02-21T06:09:41.499Z,6.87
2019-02-21T06:12:33.529Z,6.93
2019-02-21T06:15:18.565Z,6.91
2019-02-21T06:17:57.660Z,6.92
2019-02-21T06:20:38.783Z,6.89
2019-02-21T06:23:30.974Z,6.89
2019-02-21T06:26:17.502Z,6.98
2019-02-21T06:28:58.941Z,6.99
2019-02-21T06:31:29.432Z,6.93
2019-02-21T06:33:59.869Z,6.91
2019-02-21T06:36:30.416Z,7.00
2019-02-21T06:39:00.907Z,6.99
2019-02-21T06:41:31.353Z,7.00
2019-02-21T06:44:01.868Z,7.02
2019-02-21T06:46:32.308Z,6.94
2019-02-21T06:49:03.890Z,7.00
2019-02-21T06:51:34.365Z,7.08
2019-02-21T06:54:04.810Z,7.16
2019-02-21T06:56:35.287Z,7.21
2019-02-21T06:59:06.080Z,7.27
2019-02-21T07:01:36.839Z,7.11
2019-02-21T07:04:07.287Z,7.20
2019-02-21T07:06:39.223Z,7.25
2019-02-21T07:09:09.927Z,7.24
2019-02-21T07:11:40.358Z,7.24
2019-02-21T07:14:11.206Z,7.32
2019-02-21T07:16:42.091Z,7.27
2019-02-21T07:19:12.538Z,7.24
2019-02-21T07:21:43.004Z,7.26
2019-02-21T07:24:13.534Z,7.31
2019-02-21T07:26:43.995Z,7.30
2019-02-21T07:29:15.422Z,7.36
2019-02-21T07:31:45.890Z,7.34
2019-02-21T07:34:16.335Z,7.36
2019-02-21T07:36:46.806Z,7.50
2019-02-21T07:39:20.732Z,7.58
2019-02-21T07:41:50.114Z,7.60
2019-02-21T07:44:21.323Z,7.57
2019-02-21T07:46:53.449Z,7.55
2019-02-21T07:49:25.759Z,7.48
2019-02-21T07:51:56.728Z,7.38
2019-02-21T07:54:28.079Z,7.28
2019-02-21T07:56:58.522Z,7.35
2019-02-21T07:59:29.015Z,7.40
2019-02-21T08:01:59.852Z,7.48
2019-02-21T08:04:30.258Z,7.52
2019-02-21T08:07:01.615Z,7.44
2019-02-21T08:09:32.060Z,7.50
2019-02-21T08:12:03.261Z,7.50
2019-02-21T08:14:34.447Z,7.55
2019-02-21T08:17:04.907Z,7.71
2019-02-21T08:19:35.370Z,7.73
2019-02-21T08:22:05.831Z,7.85
2019-02-21T08:24:36.299Z,7.92
2019-02-21T08:27:07.639Z,7.97
2019-02-21T08:29:38.119Z,8.02
2019-02-21T08:32:08.928Z,8.07
2019-02-21T08:34:42.938Z,8.14
2019-02-21T08:37:13.410Z,8.12
2019-02-21T08:39:44.290Z,8.20
2019-02-21T08:42:14.756Z,8.18
2019-02-21T08:44:45.555Z,8.26
2019-02-21T08:47:16.050Z,8.28
2019-02-21T08:49:46.492Z,8.26
2019-02-21T08:52:17.206Z,8.25
2019-02-21T08:54:48.258Z,8.36
2019-02-21T08:57:21.385Z,8.40
2019-02-21T08:59:50.883Z,8.39
2019-02-21T09:02:21.340Z,8.42
2019-02-21T09:04:51.819Z,8.47
2019-02-21T09:07:22.259Z,8.39
2019-02-21T09:09:53.213Z,8.41
2019-02-21T09:12:23.657Z,8.50
2019-02-21T09:14:54.140Z,8.51
2019-02-21T09:17:24.634Z,8.49
2019-02-21T09:19:55.075Z,8.56
2019-02-21T09:22:25.526Z,8.60
2019-02-21T09:24:56.152Z,8.66
2019-02-21T09:27:26.598Z,8.77
2019-02-21T09:29:57.095Z,8.81
2019-02-21T09:32:27.916Z,8.87
2019-02-21T09:34:58.815Z,8.88
2019-02-21T09:37:29.401Z,9.04
2019-02-21T09:39:59.844Z,9.17
2019-02-21T09:42:31.226Z,9.25
2019-02-21T09:45:01.668Z,9.11
2019-02-21T09:47:33.106Z,9.02
2019-02-21T09:50:03.576Z,8.95
2019-02-21T09:52:34.034Z,8.97
2019-02-21T09:55:04.966Z,9.08
2019-02-21T09:57:35.435Z,9.30
2019-02-21T10:00:08.118Z,9.31
2019-02-21T10:02:38.589Z,9.45
2019-02-21T10:05:09.903Z,9.53
2019-02-21T10:07:40.383Z,9.46
2019-02-21T10:10:15.890Z,9.64
2019-02-21T10:12:46.516Z,9.75
2019-02-21T10:15:17.345Z,10.08
2019-02-21T10:17:47.802Z,10.06
2019-02-21T10:20:19.678Z,10.03
2019-02-21T10:22:50.532Z,10.31
2019-02-21T10:25:23.669Z,10.63
2019-02-21T10:27:54.162Z,10.64
2019-02-21T10:30:24.628Z,10.55
2019-02-21T10:32:55.167Z,10.49
2019-02-21T10:35:25.616Z,10.49
2019-02-21T10:37:56.071Z,10.56
2019-02-21T10:40:26.542Z,10.68
2019-02-21T10:42:57.551Z,11.00
2019-02-21T10:45:28.003Z,10.93
2019-02-21T10:47:58.496Z,10.79
2019-02-21T10:50:28.934Z,10.68
2019-02-21T10:53:00.382Z,10.76
2019-02-21T10:55:30.832Z,10.88
2019-02-21T10:58:01.314Z,10.91
2019-02-21T11:00:31.887Z,10.89
2019-02-21T11:03:02.731Z,10.83
2019-02-21T11:05:33.199Z,10.92
2019-02-21T11:08:04.035Z,11.19
2019-02-21T11:10:34.517Z,11.31
2019-02-21T11:13:05.232Z,11.42
2019-02-21T11:15:36.062Z,11.67
2019-02-21T11:18:06.512Z,11.66
2019-02-21T11:20:36.967Z,11.73
2019-02-21T11:23:07.459Z,11.66
2019-02-21T11:25:37.904Z,11.50
2019-02-21T11:28:08.373Z,11.51
2019-02-21T11:30:38.836Z,11.54
2019-02-21T11:33:09.283Z,11.47
2019-02-21T11:35:39.779Z,11.24
2019-02-21T11:38:12.376Z,11.18
2019-02-21T11:40:43.092Z,11.08
2019-02-21T11:43:13.567Z,11.17
2019-02-21T11:45:53.585Z,11.00
2019-02-21T11:48:16.550Z,10.96
2019-02-21T11:50:46.995Z,10.90
2019-02-21T11:53:18.488Z,10.92
2019-02-21T11:55:48.981Z,10.89
2019-02-21T11:58:19.583Z,10.84
2019-02-21T12:00:50.035Z,10.87
2019-02-21T12:03:21.412Z,10.75
2019-02-21T12:05:52.017Z,10.73
2019-02-21T12:08:23.188Z,10.83
2019-02-21T12:10:53.697Z,10.75
2019-02-21T12:13:24.754Z,10.70
2019-02-21T12:15:55.371Z,10.69
2019-02-21T12:18:25.848Z,10.60
2019-02-21T12:20:57.524Z,10.55
2019-02-21T12:23:28.019Z,10.63
2019-02-21T12:25:59.451Z,10.56
2019-02-21T12:28:29.900Z,10.49
2019-02-21T12:31:00.382Z,10.57
2019-02-21T12:33:30.832Z,10.54
2019-02-21T12:36:01.646Z,10.65
2019-02-21T12:38:32.095Z,10.61
2019-02-21T12:41:03.099Z,10.54
2019-02-21T12:43:33.588Z,10.59
2019-02-21T12:46:04.040Z,10.68
2019-02-21T12:48:34.531Z,10.79
2019-02-21T12:51:04.995Z,10.84
2019-02-21T12:53:35.491Z,11.05
2019-02-21T12:56:05.943Z,11.00
2019-02-21T12:58:36.830Z,11.11
2019-02-21T13:01:07.667Z,11.16
2019-02-21T13:03:38.181Z,11.20
2019-02-21T13:06:08.644Z,11.20
2019-02-21T13:08:39.152Z,11.19
2019-02-21T13:11:09.603Z,11.20
2019-02-21T13:13:40.116Z,11.24
2019-02-21T13:16:11.061Z,11.29
2019-02-21T13:18:41.556Z,11.23
2019-02-21T13:21:12.070Z,11.22
2019-02-21T13:23:43.494Z,11.19
2019-02-21T13:26:13.979Z,11.19
2019-02-21T13:28:44.435Z,11.20
2019-02-21T13:31:14.925Z,11.16
2019-02-21T13:33:45.368Z,11.14
2019-02-21T13:36:16.172Z,11.12
2019-02-21T13:38:46.623Z,11.14
2019-02-21T13:41:17.073Z,11.07
2019-02-21T13:43:47.551Z,11.12
2019-02-21T13:46:18.003Z,11.02
2019-02-21T13:48:48.508Z,11.08
2019-02-21T13:51:18.971Z,11.05
2019-02-21T13:53:52.146Z,11.12
2019-02-21T13:56:21.620Z,11.05
2019-02-21T13:58:54.459Z,11.12
2019-02-21T14:01:24.916Z,11.10
2019-02-21T14:03:56.685Z,11.06
2019-02-21T14:06:27.403Z,11.10
2019-02-21T14:08:57.882Z,11.18
2019-02-21T14:11:30.728Z,11.07
2019-02-21T14:14:01.177Z,11.04
2019-02-21T14:16:31.673Z,11.04
2019-02-21T14:19:02.148Z,11.03
2019-02-21T14:21:32.637Z,11.01
2019-02-21T14:24:03.105Z,10.99
2019-02-21T14:26:33.929Z,11.00
2019-02-21T14:29:04.400Z,11.02
2019-02-21T14:31:34.988Z,11.08
2019-02-21T14:34:06.474Z,11.10
2019-02-21T14:36:36.922Z,11.13
2019-02-21T14:39:10.534Z,11.05
2019-02-21T14:41:40.800Z,11.07
2019-02-21T14:44:11.660Z,10.98
2019-02-21T14:46:42.156Z,10.95
2019-02-21T14:49:12.940Z,10.90
2019-02-21T14:51:43.384Z,10.84
2019-02-21T14:54:16.358Z,10.84
2019-02-21T14:56:46.033Z,10.77
2019-02-21T14:59:16.477Z,10.75
2019-02-21T15:01:48.308Z,10.68
2019-02-21T15:04:18.765Z,10.71
2019-02-21T15:06:49.247Z,10.61
2019-02-21T15:09:20.372Z,10.53
2019-02-21T15:11:50.863Z,10.51
2019-02-21T15:14:21.324Z,10.56
2019-02-21T15:16:51.863Z,10.52
2019-02-21T15:19:22.323Z,10.49
2019-02-21T15:21:52.789Z,10.57
2019-02-21T15:24:23.489Z,10.57
2019-02-21T15:26:53.977Z,10.56
2019-02-21T15:29:24.433Z,10.54
2019-02-21T15:31:54.943Z,10.56
2019-02-21T15:34:25.892Z,10.53
2019-02-21T15:36:56.339Z,10.46
2019-02-21T15:39:26.820Z,10.43
2019-02-21T15:41:57.279Z,10.38
2019-02-21T15:44:27.777Z,10.32
2019-02-21T15:46:58.220Z,10.25
2019-02-21T15:49:30.342Z,10.23
2019-02-21T15:52:00.834Z,10.14
2019-02-21T15:54:31.281Z,10.16
2019-02-21T15:57:02.127Z,10.13
2019-02-21T15:59:32.587Z,10.08
2019-02-21T16:02:03.047Z,10.02
2019-02-21T16:04:35.325Z,10.02
2019-02-21T16:07:05.860Z,10.00
2019-02-21T16:09:37.320Z,10.02
2019-02-21T16:12:07.874Z,9.97
2019-02-21T16:14:38.353Z,9.90
2019-02-21T16:17:08.886Z,9.92
2019-02-21T16:19:39.359Z,9.94
2019-02-21T16:22:09.810Z,9.95
2019-02-21T16:24:40.258Z,9.99
2019-02-21T16:27:10.707Z,9.96
2019-02-21T16:29:41.200Z,9.93
2019-02-21T16:32:11.684Z,10.00
2019-02-21T16:34:42.595Z,9.94
2019-02-21T16:37:13.225Z,9.93
2019-02-21T16:39:43.665Z,9.87
2019-02-21T16:42:14.172Z,9.91
2019-02-21T16:44:44.644Z,9.86
2019-02-21T16:47:15.191Z,9.85
2019-02-21T16:49:46.474Z,9.87
2019-02-21T16:52:17.159Z,9.82
2019-02-21T16:54:47.622Z,9.85
2019-02-21T16:57:18.082Z,9.79
2019-02-21T16:59:48.556Z,9.81
2019-02-21T17:02:19.009Z,9.76
2019-02-21T17:04:49.522Z,9.74
2019-02-21T17:07:20.382Z,9.75
2019-02-21T17:09:50.993Z,9.71
2019-02-21T17:12:21.480Z,9.75
2019-02-21T17:14:52.047Z,9.73
2019-02-21T17:17:22.519Z,9.76
2019-02-21T17:19:53.451Z,9.73
2019-02-21T17:22:24.206Z,9.72
2019-02-21T17:24:55.022Z,9.75
2019-02-21T17:27:25.470Z,9.75
2019-02-21T17:29:55.979Z,9.72
2019-02-21T17:32:26.442Z,9.72
2019-02-21T17:34:57.460Z,9.77
2019-02-21T17:37:27.991Z,9.79
2019-02-21T17:39:58.447Z,9.79
2019-02-21T17:42:28.929Z,9.81
2019-02-21T17:44:59.742Z,9.77
2019-02-21T17:47:32.697Z,9.85
2019-02-21T17:50:02.423Z,9.82
2019-02-21T17:52:32.948Z,9.81
2019-02-21T17:55:03.420Z,9.80
2019-02-21T17:57:33.923Z,9.83
2019-02-21T18:00:05.880Z,9.77
2019-02-21T18:02:36.337Z,9.83
2019-02-21T18:05:07.396Z,9.82
2019-02-21T18:07:39.035Z,9.83
2019-02-21T18:10:14.077Z,9.79
2019-02-21T18:12:44.908Z,9.77
2019-02-21T18:15:15.576Z,9.79
2019-02-21T18:17:46.435Z,9.83
2019-02-21T18:20:17.045Z,9.81
2019-02-21T18:22:47.951Z,9.81
2019-02-21T18:25:22.336Z,9.80
2019-02-21T18:27:52.799Z,9.79
2019-02-21T18:30:23.347Z,9.81
2019-02-21T18:32:53.890Z,9.84
2019-02-21T18:35:26.442Z,9.83
2019-02-21T18:37:56.981Z,9.88
2019-02-21T18:40:27.832Z,9.81
2019-02-21T18:42:58.366Z,9.74
2019-02-21T18:45:28.823Z,9.75
2019-02-21T18:47:59.627Z,9.66
2019-02-21T18:50:37.839Z,9.65
2019-02-21T18:53:03.162Z,9.62
2019-02-21T18:55:33.632Z,9.60
2019-02-21T18:58:05.200Z,9.64
2019-02-21T19:00:37.962Z,9.59
2019-02-21T19:03:09.383Z,9.61
2019-02-21T19:05:39.878Z,9.64
2019-02-21T19:08:10.350Z,9.68
2019-02-21T19:10:40.806Z,9.69
2019-02-21T19:13:11.468Z,9.66
2019-02-21T19:15:42.307Z,9.65
2019-02-21T19:18:12.775Z,9.64
2019-02-21T19:20:44.130Z,9.61
2019-02-21T19:23:14.633Z,9.61
2019-02-21T19:25:45.443Z,9.63
2019-02-21T19:28:16.273Z,9.68
2019-02-21T19:30:51.032Z,9.65
2019-02-21T19:33:21.588Z,9.63
2019-02-21T19:35:52.104Z,9.67
2019-02-21T19:38:23.732Z,9.75
2019-02-21T19:40:54.178Z,9.72
2019-02-21T19:43:25.727Z,9.72
2019-02-21T19:45:56.922Z,9.72
2019-02-21T19:48:27.436Z,9.71
2019-02-21T19:50:58.298Z,9.69
2019-02-21T19:53:28.746Z,9.67
2019-02-21T19:56:00.554Z,9.64
2019-02-21T19:58:31.357Z,9.69
2019-02-21T20:01:02.199Z,9.68
2019-02-21T20:03:33.589Z,9.70
2019-02-21T20:06:04.051Z,9.69
2019-02-21T20:08:34.492Z,9.58
2019-02-21T20:11:05.666Z,9.60
2019-02-21T20:13:53.112Z,9.61
2019-02-21T20:16:24.305Z,9.66
2019-02-21T20:18:56.463Z,9.60
2019-02-21T20:21:26.944Z,9.64
2019-02-21T20:23:57.459Z,9.62
2019-02-21T20:26:27.910Z,9.63
2019-02-21T20:28:58.370Z,9.61
2019-02-21T20:31:28.856Z,9.64
2019-02-21T20:33:59.304Z,9.65
2019-02-21T20:36:30.115Z,9.61
2019-02-21T20:39:00.779Z,9.60
2019-02-21T20:41:32.061Z,9.58
2019-02-21T20:44:02.524Z,9.55
2019-02-21T20:46:33.924Z,9.60
2019-02-21T20:49:05.034Z,9.55
2019-02-21T20:51:35.483Z,9.55
2019-02-21T20:54:07.497Z,9.52
2019-02-21T20:56:38.630Z,9.57
2019-02-21T20:59:10.912Z,9.54
2019-02-21T21:01:41.426Z,9.48
2019-02-21T21:04:11.870Z,9.49
2019-02-21T21:06:42.392Z,9.47
2019-02-21T21:09:13.383Z,9.47
2019-02-21T21:11:43.858Z,9.55
2019-02-21T21:14:14.643Z,9.54
2019-02-21T21:16:47.230Z,9.57
2019-02-21T21:19:17.688Z,9.59
2019-02-21T21:21:48.164Z,9.57
2019-02-21T21:24:18.702Z,9.54
2019-02-21T21:26:49.201Z,9.56
2019-02-21T21:29:19.685Z,9.51
2019-02-21T21:31:50.162Z,9.51
2019-02-21T21:34:20.640Z,9.53
2019-02-21T21:36:51.098Z,9.49
2019-02-21T21:39:22.282Z,9.45
2019-02-21T21:41:52.762Z,9.43
2019-02-21T21:44:23.373Z,9.44
2019-02-21T21:46:56.818Z,9.40
2019-02-21T21:49:27.267Z,9.37
2019-02-21T21:51:57.715Z,9.34
2019-02-21T21:54:28.618Z,9.40
2019-02-21T21:56:59.422Z,9.47
2019-02-21T21:59:29.887Z,9.43
2019-02-21T22:02:00.397Z,9.44
2019-02-21T22:04:30.849Z,9.45
2019-02-21T22:07:01.300Z,9.50
2019-02-21T22:09:31.779Z,9.47
2019-02-21T22:12:02.611Z,9.46
2019-02-21T22:14:33.083Z,9.33
2019-02-21T22:17:03.526Z,9.35
2019-02-21T22:19:34.028Z,9.30
2019-02-21T22:22:04.480Z,9.31
2019-02-21T22:24:34.930Z,9.33
2019-02-21T22:27:05.445Z,9.38
2019-02-21T22:29:35.893Z,9.40
2019-02-21T22:32:06.356Z,9.44
2019-02-21T22:34:37.386Z,9.34
2019-02-21T22:37:07.844Z,9.40
2019-02-21T22:39:39.148Z,9.43
2019-02-21T22:42:09.621Z,9.36
2019-02-21T22:44:40.159Z,9.32
2019-02-21T22:47:11.071Z,9.38
2019-02-21T22:49:41.516Z,9.32
2019-02-21T22:52:11.960Z,9.39
2019-02-21T22:54:43.025Z,9.44
2019-02-21T22:57:13.483Z,9.41
2019-02-21T22:59:44.408Z,9.39
2019-02-21T23:02:15.118Z,9.43
2019-02-21T23:05:10.235Z,9.45
2019-02-21T23:07:50.824Z,9.39
2019-02-21T23:10:21.295Z,9.40
2019-02-21T23:12:51.745Z,9.40
2019-02-21T23:15:22.286Z,9.37
2019-02-21T23:17:52.826Z,9.36
2019-02-21T23:20:23.374Z,9.40
2019-02-21T23:22:53.815Z,9.38
2019-02-21T23:25:24.642Z,9.35
2019-02-21T23:27:55.120Z,9.35
2019-02-21T23:30:25.561Z,9.33
2019-02-21T23:32:56.027Z,9.29
2019-02-21T23:35:26.507Z,9.27
2019-02-21T23:37:57.344Z,9.29
2019-02-21T23:40:27.869Z,9.15
2019-02-21T23:42:58.354Z,9.18
2019-02-21T23:45:28.806Z,9.18
2019-02-21T23:47:59.699Z,9.18
2019-02-21T23:50:30.143Z,9.20
2019-02-21T23:53:00.632Z,9.18
2019-02-21T23:55:31.083Z,9.11
2019-02-21T23:58:01.902Z,9.13
